sensor_id;sensor_type;location;lat;lon;timestamp;P1;durP1;ratioP1;P2;durP2;ratioP2
25069;SDS011;13064;48.162;11.536;2022-12-29T00:00:56;2.28;;;1.15;;
25069;SDS011;13064;48.162;11.536;2022-12-29T00:03:26;1.75;;;1.40;;
25069;SDS011;13064;48.162;11.536;2022-12-29T00:05:55;4.45;;;1.20;;
25069;SDS011;13064;48.162;11.536;2022-12-29T00:08:22;1.98;;;1.33;;
25069;SDS011;13064;48.162;11.536;2022-12-29T00:11:09;1.95;;;1.42;;
25069;SDS011;13064;48.162;11.536;2022-12-29T00:13:37;1.58;;;1.02;;
25069;SDS011;13064;48.162;11.536;2022-12-29T00:16:23;1.00;;;0.90;;
25069;SDS011;13064;48.162;11.536;2022-12-29T00:18:51;1.38;;;1.05;;
25069;SDS011;13064;48.162;11.536;2022-12-29T00:21:20;1.60;;;0.95;;
25069;SDS011;13064;48.162;11.536;2022-12-29T00:24:18;1.52;;;1.00;;
25069;SDS011;13064;48.162;11.536;2022-12-29T00:29:47;1.63;;;1.17;;
25069;SDS011;13064;48.162;11.536;2022-12-29T00:32:34;1.35;;;0.90;;
25069;SDS011;13064;48.162;11.536;2022-12-29T00:35:25;1.83;;;1.00;;
25069;SDS011;13064;48.162;11.536;2022-12-29T00:37:54;1.10;;;0.90;;
25069;SDS011;13064;48.162;11.536;2022-12-29T00:40:42;1.98;;;1.00;;
25069;SDS011;13064;48.162;11.536;2022-12-29T00:43:28;1.75;;;1.10;;
25069;SDS011;13064;48.162;11.536;2022-12-29T00:46:14;1.23;;;0.90;;
25069;SDS011;13064;48.162;11.536;2022-12-29T00:48:45;1.95;;;0.85;;
25069;SDS011;13064;48.162;11.536;2022-12-29T00:51:32;1.38;;;0.80;;
25069;SDS011;13064;48.162;11.536;2022-12-29T00:54:00;1.42;;;0.93;;
25069;SDS011;13064;48.162;11.536;2022-12-29T00:56:28;0.93;;;0.82;;
25069;SDS011;13064;48.162;11.536;2022-12-29T00:58:55;1.00;;;0.77;;
25069;SDS011;13064;48.162;11.536;2022-12-29T01:03:55;1.42;;;1.00;;
25069;SDS011;13064;48.162;11.536;2022-12-29T01:06:29;0.85;;;0.82;;
25069;SDS011;13064;48.162;11.536;2022-12-29T01:08:58;0.90;;;0.88;;
25069;SDS011;13064;48.162;11.536;2022-12-29T01:11:45;1.38;;;0.90;;
25069;SDS011;13064;48.162;11.536;2022-12-29T01:14:13;1.10;;;0.90;;
25069;SDS011;13064;48.162;11.536;2022-12-29T01:16:40;1.23;;;1.00;;
25069;SDS011;13064;48.162;11.536;2022-12-29T01:19:08;2.58;;;0.98;;
25069;SDS011;13064;48.162;11.536;2022-12-29T01:21:36;1.00;;;0.80;;
25069;SDS011;13064;48.162;11.536;2022-12-29T01:24:03;1.50;;;1.15;;
25069;SDS011;13064;48.162;11.536;2022-12-29T01:26:31;1.85;;;1.13;;
25069;SDS011;13064;48.162;11.536;2022-12-29T01:28:59;2.33;;;1.10;;
25069;SDS011;13064;48.162;11.536;2022-12-29T01:31:28;1.08;;;0.90;;
25069;SDS011;13064;48.162;11.536;2022-12-29T01:33:55;2.03;;;1.00;;
25069;SDS011;13064;48.162;11.536;2022-12-29T01:36:23;0.88;;;0.70;;
25069;SDS011;13064;48.162;11.536;2022-12-29T01:38:51;1.15;;;0.70;;
25069;SDS011;13064;48.162;11.536;2022-12-29T01:41:20;1.10;;;0.80;;
25069;SDS011;13064;48.162;11.536;2022-12-29T01:43:49;3.80;;;1.02;;
25069;SDS011;13064;48.162;11.536;2022-12-29T01:48:47;1.05;;;0.80;;
25069;SDS011;13064;48.162;11.536;2022-12-29T01:51:16;1.63;;;0.98;;
25069;SDS011;13064;48.162;11.536;2022-12-29T01:53:44;2.25;;;0.82;;
25069;SDS011;13064;48.162;11.536;2022-12-29T01:56:12;1.38;;;0.80;;
25069;SDS011;13064;48.162;11.536;2022-12-29T01:58:44;1.47;;;1.00;;
25069;SDS011;13064;48.162;11.536;2022-12-29T02:01:12;0.77;;;0.77;;
25069;SDS011;13064;48.162;11.536;2022-12-29T02:03:40;1.25;;;0.90;;
25069;SDS011;13064;48.162;11.536;2022-12-29T02:06:10;2.65;;;1.05;;
25069;SDS011;13064;48.162;11.536;2022-12-29T02:08:38;1.08;;;0.98;;
25069;SDS011;13064;48.162;11.536;2022-12-29T02:11:07;1.15;;;0.80;;
25069;SDS011;13064;48.162;11.536;2022-12-29T02:13:35;0.68;;;0.68;;
25069;SDS011;13064;48.162;11.536;2022-12-29T02:16:06;2.03;;;0.93;;
25069;SDS011;13064;48.162;11.536;2022-12-29T02:29:35;0.85;;;0.80;;
25069;SDS011;13064;48.162;11.536;2022-12-29T02:32:08;1.00;;;0.73;;
25069;SDS011;13064;48.162;11.536;2022-12-29T02:37:07;1.10;;;0.98;;
25069;SDS011;13064;48.162;11.536;2022-12-29T02:39:45;1.08;;;0.77;;
25069;SDS011;13064;48.162;11.536;2022-12-29T02:44:52;0.98;;;0.77;;
25069;SDS011;13064;48.162;11.536;2022-12-29T02:52:46;0.85;;;0.80;;
25069;SDS011;13064;48.162;11.536;2022-12-29T02:55:15;0.60;;;0.57;;
25069;SDS011;13064;48.162;11.536;2022-12-29T02:57:42;0.85;;;0.82;;
25069;SDS011;13064;48.162;11.536;2022-12-29T03:00:14;1.08;;;0.77;;
25069;SDS011;13064;48.162;11.536;2022-12-29T03:03:03;0.88;;;0.80;;
25069;SDS011;13064;48.162;11.536;2022-12-29T03:05:57;0.82;;;0.70;;
25069;SDS011;13064;48.162;11.536;2022-12-29T03:09:01;1.35;;;0.95;;
25069;SDS011;13064;48.162;11.536;2022-12-29T03:11:21;1.23;;;0.80;;
25069;SDS011;13064;48.162;11.536;2022-12-29T03:16:59;1.92;;;0.75;;
25069;SDS011;13064;48.162;11.536;2022-12-29T03:19:35;1.25;;;0.80;;
25069;SDS011;13064;48.162;11.536;2022-12-29T03:22:10;1.10;;;1.00;;
25069;SDS011;13064;48.162;11.536;2022-12-29T03:25:28;1.00;;;0.68;;
25069;SDS011;13064;48.162;11.536;2022-12-29T03:28:01;3.00;;;1.02;;
25069;SDS011;13064;48.162;11.536;2022-12-29T03:30:34;1.95;;;0.60;;
25069;SDS011;13064;48.162;11.536;2022-12-29T03:33:04;1.55;;;0.85;;
25069;SDS011;13064;48.162;11.536;2022-12-29T03:35:33;0.60;;;0.60;;
25069;SDS011;13064;48.162;11.536;2022-12-29T03:40:31;0.60;;;0.57;;
25069;SDS011;13064;48.162;11.536;2022-12-29T03:43:01;1.13;;;0.70;;
25069;SDS011;13064;48.162;11.536;2022-12-29T03:45:31;1.95;;;0.80;;
25069;SDS011;13064;48.162;11.536;2022-12-29T03:47:58;0.70;;;0.60;;
25069;SDS011;13064;48.162;11.536;2022-12-29T03:50:27;1.00;;;0.90;;
25069;SDS011;13064;48.162;11.536;2022-12-29T03:52:54;1.80;;;0.80;;
25069;SDS011;13064;48.162;11.536;2022-12-29T03:55:22;1.15;;;1.02;;
25069;SDS011;13064;48.162;11.536;2022-12-29T03:57:50;3.08;;;1.00;;
25069;SDS011;13064;48.162;11.536;2022-12-29T04:00:26;2.17;;;0.88;;
25069;SDS011;13064;48.162;11.536;2022-12-29T04:02:55;1.10;;;1.00;;
25069;SDS011;13064;48.162;11.536;2022-12-29T04:05:23;0.77;;;0.77;;
25069;SDS011;13064;48.162;11.536;2022-12-29T04:07:53;1.40;;;0.80;;
25069;SDS011;13064;48.162;11.536;2022-12-29T04:10:22;1.23;;;0.80;;
25069;SDS011;13064;48.162;11.536;2022-12-29T04:12:54;1.13;;;0.80;;
25069;SDS011;13064;48.162;11.536;2022-12-29T04:15:22;0.70;;;0.70;;
25069;SDS011;13064;48.162;11.536;2022-12-29T04:17:51;1.48;;;0.80;;
25069;SDS011;13064;48.162;11.536;2022-12-29T04:20:18;3.28;;;1.00;;
25069;SDS011;13064;48.162;11.536;2022-12-29T04:23:06;1.10;;;0.90;;
25069;SDS011;13064;48.162;11.536;2022-12-29T04:25:35;0.95;;;0.80;;
25069;SDS011;13064;48.162;11.536;2022-12-29T04:28:02;4.70;;;0.98;;
25069;SDS011;13064;48.162;11.536;2022-12-29T04:30:53;3.17;;;0.90;;
25069;SDS011;13064;48.162;11.536;2022-12-29T04:33:28;1.10;;;0.82;;
25069;SDS011;13064;48.162;11.536;2022-12-29T04:35:57;0.95;;;0.70;;
25069;SDS011;13064;48.162;11.536;2022-12-29T04:38:25;1.10;;;0.88;;
25069;SDS011;13064;48.162;11.536;2022-12-29T04:40:53;0.93;;;0.80;;
25069;SDS011;13064;48.162;11.536;2022-12-29T04:43:22;1.50;;;0.80;;
25069;SDS011;13064;48.162;11.536;2022-12-29T04:46:05;1.10;;;0.75;;
25069;SDS011;13064;48.162;11.536;2022-12-29T04:48:59;1.00;;;0.80;;
25069;SDS011;13064;48.162;11.536;2022-12-29T04:51:49;1.65;;;1.00;;
25069;SDS011;13064;48.162;11.536;2022-12-29T04:54:17;1.08;;;0.80;;
25069;SDS011;13064;48.162;11.536;2022-12-29T04:56:53;3.22;;;0.68;;
25069;SDS011;13064;48.162;11.536;2022-12-29T04:59:21;0.73;;;0.65;;
25069;SDS011;13064;48.162;11.536;2022-12-29T05:01:52;1.17;;;0.80;;
25069;SDS011;13064;48.162;11.536;2022-12-29T05:04:19;0.70;;;0.70;;
25069;SDS011;13064;48.162;11.536;2022-12-29T05:06:47;2.67;;;0.90;;
25069;SDS011;13064;48.162;11.536;2022-12-29T05:09:15;1.20;;;0.85;;
25069;SDS011;13064;48.162;11.536;2022-12-29T05:11:44;1.40;;;0.80;;
25069;SDS011;13064;48.162;11.536;2022-12-29T05:14:12;3.70;;;0.93;;
25069;SDS011;13064;48.162;11.536;2022-12-29T05:16:40;0.90;;;0.65;;
25069;SDS011;13064;48.162;11.536;2022-12-29T05:19:08;0.80;;;0.80;;
25069;SDS011;13064;48.162;11.536;2022-12-29T05:21:35;1.33;;;0.90;;
25069;SDS011;13064;48.162;11.536;2022-12-29T05:24:03;1.13;;;0.90;;
25069;SDS011;13064;48.162;11.536;2022-12-29T05:26:31;1.02;;;0.80;;
25069;SDS011;13064;48.162;11.536;2022-12-29T05:29:10;2.00;;;0.80;;
25069;SDS011;13064;48.162;11.536;2022-12-29T05:31:38;1.65;;;0.70;;
25069;SDS011;13064;48.162;11.536;2022-12-29T05:34:06;0.82;;;0.82;;
25069;SDS011;13064;48.162;11.536;2022-12-29T05:36:33;3.85;;;0.80;;
25069;SDS011;13064;48.162;11.536;2022-12-29T05:39:05;3.33;;;0.90;;
25069;SDS011;13064;48.162;11.536;2022-12-29T05:41:37;2.28;;;0.90;;
25069;SDS011;13064;48.162;11.536;2022-12-29T05:44:23;1.00;;;0.80;;
25069;SDS011;13064;48.162;11.536;2022-12-29T05:47:20;1.90;;;0.80;;
25069;SDS011;13064;48.162;11.536;2022-12-29T05:50:04;1.55;;;0.90;;
25069;SDS011;13064;48.162;11.536;2022-12-29T05:52:50;1.10;;;1.00;;
25069;SDS011;13064;48.162;11.536;2022-12-29T05:55:18;1.58;;;0.80;;
25069;SDS011;13064;48.162;11.536;2022-12-29T05:57:48;1.00;;;0.90;;
25069;SDS011;13064;48.162;11.536;2022-12-29T06:00:16;3.33;;;0.90;;
25069;SDS011;13064;48.162;11.536;2022-12-29T06:02:45;0.75;;;0.65;;
25069;SDS011;13064;48.162;11.536;2022-12-29T06:05:15;1.52;;;0.77;;
25069;SDS011;13064;48.162;11.536;2022-12-29T06:07:43;0.77;;;0.57;;
25069;SDS011;13064;48.162;11.536;2022-12-29T06:10:14;0.82;;;0.80;;
25069;SDS011;13064;48.162;11.536;2022-12-29T06:12:51;0.60;;;0.60;;
25069;SDS011;13064;48.162;11.536;2022-12-29T06:15:19;0.95;;;0.75;;
25069;SDS011;13064;48.162;11.536;2022-12-29T06:17:49;3.03;;;0.88;;
25069;SDS011;13064;48.162;11.536;2022-12-29T06:20:17;2.13;;;0.90;;
25069;SDS011;13064;48.162;11.536;2022-12-29T06:22:44;1.25;;;0.80;;
25069;SDS011;13064;48.162;11.536;2022-12-29T06:25:13;0.95;;;0.73;;
25069;SDS011;13064;48.162;11.536;2022-12-29T06:27:42;0.88;;;0.80;;
25069;SDS011;13064;48.162;11.536;2022-12-29T06:30:10;2.08;;;0.90;;
25069;SDS011;13064;48.162;11.536;2022-12-29T06:32:39;1.20;;;0.85;;
25069;SDS011;13064;48.162;11.536;2022-12-29T06:35:09;3.03;;;1.10;;
25069;SDS011;13064;48.162;11.536;2022-12-29T06:37:45;3.08;;;0.80;;
25069;SDS011;13064;48.162;11.536;2022-12-29T06:40:12;0.85;;;0.75;;
25069;SDS011;13064;48.162;11.536;2022-12-29T06:42:59;1.08;;;0.95;;
25069;SDS011;13064;48.162;11.536;2022-12-29T06:45:41;1.17;;;0.88;;
25069;SDS011;13064;48.162;11.536;2022-12-29T06:48:08;2.33;;;1.08;;
25069;SDS011;13064;48.162;11.536;2022-12-29T06:50:36;2.88;;;0.90;;
25069;SDS011;13064;48.162;11.536;2022-12-29T06:53:04;2.17;;;1.05;;
25069;SDS011;13064;48.162;11.536;2022-12-29T06:55:31;2.05;;;0.98;;
25069;SDS011;13064;48.162;11.536;2022-12-29T06:57:59;3.60;;;1.10;;
25069;SDS011;13064;48.162;11.536;2022-12-29T07:00:27;1.42;;;1.00;;
25069;SDS011;13064;48.162;11.536;2022-12-29T07:02:55;1.65;;;0.95;;
25069;SDS011;13064;48.162;11.536;2022-12-29T07:05:26;1.10;;;0.90;;
25069;SDS011;13064;48.162;11.536;2022-12-29T07:07:54;2.03;;;1.00;;
25069;SDS011;13064;48.162;11.536;2022-12-29T07:10:22;1.10;;;0.90;;
25069;SDS011;13064;48.162;11.536;2022-12-29T07:12:50;1.00;;;0.90;;
25069;SDS011;13064;48.162;11.536;2022-12-29T07:15:17;4.25;;;0.88;;
25069;SDS011;13064;48.162;11.536;2022-12-29T07:17:45;1.27;;;1.13;;
25069;SDS011;13064;48.162;11.536;2022-12-29T07:20:12;1.45;;;1.00;;
25069;SDS011;13064;48.162;11.536;2022-12-29T07:22:40;2.83;;;1.02;;
25069;SDS011;13064;48.162;11.536;2022-12-29T07:25:08;2.20;;;1.00;;
25069;SDS011;13064;48.162;11.536;2022-12-29T07:27:35;1.42;;;1.00;;
25069;SDS011;13064;48.162;11.536;2022-12-29T07:30:03;1.38;;;0.85;;
25069;SDS011;13064;48.162;11.536;2022-12-29T07:32:34;2.03;;;1.05;;
25069;SDS011;13064;48.162;11.536;2022-12-29T07:35:02;0.80;;;0.80;;
25069;SDS011;13064;48.162;11.536;2022-12-29T07:37:30;1.58;;;1.10;;
25069;SDS011;13064;48.162;11.536;2022-12-29T07:39:57;1.17;;;0.82;;
25069;SDS011;13064;48.162;11.536;2022-12-29T07:42:25;2.78;;;1.08;;
25069;SDS011;13064;48.162;11.536;2022-12-29T07:44:53;1.92;;;1.20;;
25069;SDS011;13064;48.162;11.536;2022-12-29T07:47:25;1.17;;;0.93;;
25069;SDS011;13064;48.162;11.536;2022-12-29T07:49:53;1.45;;;0.95;;
25069;SDS011;13064;48.162;11.536;2022-12-29T07:52:21;1.75;;;0.98;;
25069;SDS011;13064;48.162;11.536;2022-12-29T07:54:48;1.63;;;1.10;;
25069;SDS011;13064;48.162;11.536;2022-12-29T07:57:16;2.30;;;1.08;;
25069;SDS011;13064;48.162;11.536;2022-12-29T07:59:43;1.70;;;1.20;;
25069;SDS011;13064;48.162;11.536;2022-12-29T08:02:11;4.45;;;1.48;;
25069;SDS011;13064;48.162;11.536;2022-12-29T08:04:39;1.02;;;0.77;;
25069;SDS011;13064;48.162;11.536;2022-12-29T08:07:06;2.60;;;1.23;;
25069;SDS011;13064;48.162;11.536;2022-12-29T08:09:34;2.28;;;1.50;;
25069;SDS011;13064;48.162;11.536;2022-12-29T08:12:01;1.70;;;1.10;;
25069;SDS011;13064;48.162;11.536;2022-12-29T08:14:29;3.92;;;1.40;;
25069;SDS011;13064;48.162;11.536;2022-12-29T08:16:57;1.83;;;1.10;;
25069;SDS011;13064;48.162;11.536;2022-12-29T08:19:24;2.72;;;1.23;;
25069;SDS011;13064;48.162;11.536;2022-12-29T08:21:52;1.50;;;1.00;;
25069;SDS011;13064;48.162;11.536;2022-12-29T08:24:20;1.35;;;0.90;;
25069;SDS011;13064;48.162;11.536;2022-12-29T08:26:47;4.68;;;1.00;;
25069;SDS011;13064;48.162;11.536;2022-12-29T08:29:15;1.38;;;0.93;;
25069;SDS011;13064;48.162;11.536;2022-12-29T08:31:43;2.20;;;0.93;;
25069;SDS011;13064;48.162;11.536;2022-12-29T08:34:11;1.90;;;1.20;;
25069;SDS011;13064;48.162;11.536;2022-12-29T08:36:38;1.88;;;1.02;;
25069;SDS011;13064;48.162;11.536;2022-12-29T08:39:06;3.10;;;0.93;;
25069;SDS011;13064;48.162;11.536;2022-12-29T08:41:33;3.80;;;1.10;;
25069;SDS011;13064;48.162;11.536;2022-12-29T08:44:01;2.15;;;1.00;;
25069;SDS011;13064;48.162;11.536;2022-12-29T08:46:29;3.90;;;0.90;;
25069;SDS011;13064;48.162;11.536;2022-12-29T08:48:56;2.42;;;0.90;;
25069;SDS011;13064;48.162;11.536;2022-12-29T08:51:24;1.85;;;1.02;;
25069;SDS011;13064;48.162;11.536;2022-12-29T08:53:51;1.77;;;1.00;;
25069;SDS011;13064;48.162;11.536;2022-12-29T08:56:20;1.30;;;1.20;;
25069;SDS011;13064;48.162;11.536;2022-12-29T08:58:51;2.30;;;0.93;;
25069;SDS011;13064;48.162;11.536;2022-12-29T09:01:20;3.05;;;1.10;;
25069;SDS011;13064;48.162;11.536;2022-12-29T09:03:49;3.58;;;1.05;;
25069;SDS011;13064;48.162;11.536;2022-12-29T09:06:37;1.20;;;1.00;;
25069;SDS011;13064;48.162;11.536;2022-12-29T09:09:06;2.35;;;1.10;;
25069;SDS011;13064;48.162;11.536;2022-12-29T09:11:34;2.67;;;1.00;;
25069;SDS011;13064;48.162;11.536;2022-12-29T09:14:02;2.30;;;0.88;;
25069;SDS011;13064;48.162;11.536;2022-12-29T09:16:29;1.73;;;1.00;;
25069;SDS011;13064;48.162;11.536;2022-12-29T09:18:57;1.67;;;1.00;;
25069;SDS011;13064;48.162;11.536;2022-12-29T09:21:25;2.42;;;1.08;;
25069;SDS011;13064;48.162;11.536;2022-12-29T09:23:52;2.03;;;1.10;;
25069;SDS011;13064;48.162;11.536;2022-12-29T09:26:20;2.63;;;1.00;;
25069;SDS011;13064;48.162;11.536;2022-12-29T09:28:47;1.83;;;1.15;;
25069;SDS011;13064;48.162;11.536;2022-12-29T09:31:15;3.17;;;1.00;;
25069;SDS011;13064;48.162;11.536;2022-12-29T09:33:42;0.93;;;0.90;;
25069;SDS011;13064;48.162;11.536;2022-12-29T09:36:10;4.07;;;1.10;;
25069;SDS011;13064;48.162;11.536;2022-12-29T09:38:38;1.40;;;1.00;;
25069;SDS011;13064;48.162;11.536;2022-12-29T09:43:40;2.88;;;0.98;;
25069;SDS011;13064;48.162;11.536;2022-12-29T09:46:17;2.75;;;1.10;;
25069;SDS011;13064;48.162;11.536;2022-12-29T09:48:51;3.00;;;1.00;;
25069;SDS011;13064;48.162;11.536;2022-12-29T09:51:21;1.08;;;0.98;;
25069;SDS011;13064;48.162;11.536;2022-12-29T09:53:56;2.30;;;1.23;;
25069;SDS011;13064;48.162;11.536;2022-12-29T09:56:25;1.40;;;0.90;;
25069;SDS011;13064;48.162;11.536;2022-12-29T09:58:59;5.82;;;1.75;;
25069;SDS011;13064;48.162;11.536;2022-12-29T10:01:28;3.97;;;1.10;;
25069;SDS011;13064;48.162;11.536;2022-12-29T10:03:58;1.25;;;1.08;;
25069;SDS011;13064;48.162;11.536;2022-12-29T10:06:46;7.00;;;1.65;;
25069;SDS011;13064;48.162;11.536;2022-12-29T10:09:41;4.78;;;1.42;;
25069;SDS011;13064;48.162;11.536;2022-12-29T10:14:57;1.83;;;1.40;;
25069;SDS011;13064;48.162;11.536;2022-12-29T10:25:11;3.50;;;1.27;;
25069;SDS011;13064;48.162;11.536;2022-12-29T10:27:39;1.60;;;1.08;;
25069;SDS011;13064;48.162;11.536;2022-12-29T10:30:10;2.65;;;1.27;;
25069;SDS011;13064;48.162;11.536;2022-12-29T10:32:39;1.77;;;1.17;;
25069;SDS011;13064;48.162;11.536;2022-12-29T10:37:40;3.38;;;1.30;;
25069;SDS011;13064;48.162;11.536;2022-12-29T10:40:22;1.92;;;1.48;;
25069;SDS011;13064;48.162;11.536;2022-12-29T10:42:52;3.95;;;1.60;;
25069;SDS011;13064;48.162;11.536;2022-12-29T10:45:19;3.13;;;1.20;;
25069;SDS011;13064;48.162;11.536;2022-12-29T10:48:23;1.50;;;1.30;;
25069;SDS011;13064;48.162;11.536;2022-12-29T10:50:43;1.35;;;0.93;;
25069;SDS011;13064;48.162;11.536;2022-12-29T10:53:15;1.48;;;1.10;;
25069;SDS011;13064;48.162;11.536;2022-12-29T10:55:43;4.05;;;1.45;;
25069;SDS011;13064;48.162;11.536;2022-12-29T10:58:11;1.33;;;1.20;;
25069;SDS011;13064;48.162;11.536;2022-12-29T11:00:40;1.90;;;1.38;;
25069;SDS011;13064;48.162;11.536;2022-12-29T11:06:01;2.97;;;1.30;;
25069;SDS011;13064;48.162;11.536;2022-12-29T11:08:31;3.95;;;1.33;;
25069;SDS011;13064;48.162;11.536;2022-12-29T11:11:02;1.60;;;1.10;;
25069;SDS011;13064;48.162;11.536;2022-12-29T11:13:31;2.50;;;1.05;;
25069;SDS011;13064;48.162;11.536;2022-12-29T11:16:05;1.33;;;1.13;;
25069;SDS011;13064;48.162;11.536;2022-12-29T11:18:33;3.50;;;1.10;;
25069;SDS011;13064;48.162;11.536;2022-12-29T11:21:07;1.80;;;1.23;;
25069;SDS011;13064;48.162;11.536;2022-12-29T11:23:48;3.13;;;1.08;;
25069;SDS011;13064;48.162;11.536;2022-12-29T11:26:22;1.63;;;1.05;;
25069;SDS011;13064;48.162;11.536;2022-12-29T11:31:58;2.00;;;1.20;;
25069;SDS011;13064;48.162;11.536;2022-12-29T11:36:57;1.15;;;1.00;;
25069;SDS011;13064;48.162;11.536;2022-12-29T11:39:28;5.07;;;1.17;;
25069;SDS011;13064;48.162;11.536;2022-12-29T11:41:56;2.28;;;1.10;;
25069;SDS011;13064;48.162;11.536;2022-12-29T11:44:25;3.05;;;1.00;;
25069;SDS011;13064;48.162;11.536;2022-12-29T11:46:54;3.75;;;1.02;;
25069;SDS011;13064;48.162;11.536;2022-12-29T11:49:23;1.02;;;0.80;;
25069;SDS011;13064;48.162;11.536;2022-12-29T11:51:51;1.40;;;0.80;;
25069;SDS011;13064;48.162;11.536;2022-12-29T11:54:23;2.55;;;1.00;;
25069;SDS011;13064;48.162;11.536;2022-12-29T11:56:51;1.08;;;0.70;;
25069;SDS011;13064;48.162;11.536;2022-12-29T12:01:57;2.78;;;0.70;;
25069;SDS011;13064;48.162;11.536;2022-12-29T12:04:26;1.67;;;1.00;;
25069;SDS011;13064;48.162;11.536;2022-12-29T12:06:59;1.88;;;0.82;;
25069;SDS011;13064;48.162;11.536;2022-12-29T12:09:31;2.15;;;0.60;;
25069;SDS011;13064;48.162;11.536;2022-12-29T12:14:31;1.33;;;0.82;;
25069;SDS011;13064;48.162;11.536;2022-12-29T12:17:31;2.03;;;0.98;;
25069;SDS011;13064;48.162;11.536;2022-12-29T12:20:21;1.40;;;0.90;;
25069;SDS011;13064;48.162;11.536;2022-12-29T12:25:18;2.00;;;0.90;;
25069;SDS011;13064;48.162;11.536;2022-12-29T12:27:48;2.47;;;1.00;;
25069;SDS011;13064;48.162;11.536;2022-12-29T12:30:20;1.20;;;0.80;;
25069;SDS011;13064;48.162;11.536;2022-12-29T12:33:04;1.00;;;0.90;;
25069;SDS011;13064;48.162;11.536;2022-12-29T12:35:39;3.20;;;0.90;;
25069;SDS011;13064;48.162;11.536;2022-12-29T12:40:49;1.55;;;1.00;;
25069;SDS011;13064;48.162;11.536;2022-12-29T12:59:30;3.15;;;0.60;;
25069;SDS011;13064;48.162;11.536;2022-12-29T13:04:08;1.45;;;0.73;;
25069;SDS011;13064;48.162;11.536;2022-12-29T13:06:51;2.13;;;0.82;;
25069;SDS011;13064;48.162;11.536;2022-12-29T13:20:15;0.93;;;0.77;;
25069;SDS011;13064;48.162;11.536;2022-12-29T13:22:47;1.27;;;0.70;;
25069;SDS011;13064;48.162;11.536;2022-12-29T13:28:01;1.55;;;0.85;;
25069;SDS011;13064;48.162;11.536;2022-12-29T13:30:33;1.13;;;0.80;;
25069;SDS011;13064;48.162;11.536;2022-12-29T13:33:10;2.60;;;1.13;;
25069;SDS011;13064;48.162;11.536;2022-12-29T13:36:00;3.03;;;1.00;;
25069;SDS011;13064;48.162;11.536;2022-12-29T13:38:32;1.98;;;0.88;;
25069;SDS011;13064;48.162;11.536;2022-12-29T13:41:04;0.70;;;0.60;;
25069;SDS011;13064;48.162;11.536;2022-12-29T13:43:34;2.92;;;0.90;;
25069;SDS011;13064;48.162;11.536;2022-12-29T13:46:05;3.03;;;1.05;;
25069;SDS011;13064;48.162;11.536;2022-12-29T13:48:36;1.17;;;0.68;;
25069;SDS011;13064;48.162;11.536;2022-12-29T13:51:04;1.77;;;0.88;;
25069;SDS011;13064;48.162;11.536;2022-12-29T13:56:13;2.03;;;0.98;;
25069;SDS011;13064;48.162;11.536;2022-12-29T14:04:29;1.75;;;0.73;;
25069;SDS011;13064;48.162;11.536;2022-12-29T14:07:01;2.88;;;0.80;;
25069;SDS011;13064;48.162;11.536;2022-12-29T14:14:30;0.65;;;0.60;;
25069;SDS011;13064;48.162;11.536;2022-12-29T14:17:10;1.70;;;0.73;;
25069;SDS011;13064;48.162;11.536;2022-12-29T14:19:42;2.70;;;0.80;;
25069;SDS011;13064;48.162;11.536;2022-12-29T14:22:10;2.75;;;1.00;;
25069;SDS011;13064;48.162;11.536;2022-12-29T14:24:39;3.83;;;0.90;;
25069;SDS011;13064;48.162;11.536;2022-12-29T14:32:40;1.23;;;0.88;;
25069;SDS011;13064;48.162;11.536;2022-12-29T14:35:00;4.95;;;0.93;;
25069;SDS011;13064;48.162;11.536;2022-12-29T14:37:47;1.45;;;0.70;;
25069;SDS011;13064;48.162;11.536;2022-12-29T14:40:17;1.98;;;0.95;;
25069;SDS011;13064;48.162;11.536;2022-12-29T14:42:45;3.13;;;0.70;;
25069;SDS011;13064;48.162;11.536;2022-12-29T14:47:41;2.20;;;1.00;;
25069;SDS011;13064;48.162;11.536;2022-12-29T14:52:47;3.83;;;1.08;;
25069;SDS011;13064;48.162;11.536;2022-12-29T14:57:51;2.25;;;0.70;;
25069;SDS011;13064;48.162;11.536;2022-12-29T15:00:24;2.17;;;1.05;;
25069;SDS011;13064;48.162;11.536;2022-12-29T15:03:04;2.13;;;1.30;;
25069;SDS011;13064;48.162;11.536;2022-12-29T15:05:34;2.05;;;1.05;;
25069;SDS011;13064;48.162;11.536;2022-12-29T15:08:03;6.10;;;1.95;;
25069;SDS011;13064;48.162;11.536;2022-12-29T15:10:54;6.38;;;1.50;;
25069;SDS011;13064;48.162;11.536;2022-12-29T15:13:24;3.55;;;1.60;;
25069;SDS011;13064;48.162;11.536;2022-12-29T15:15:52;5.25;;;1.85;;
25069;SDS011;13064;48.162;11.536;2022-12-29T15:20:49;3.47;;;2.08;;
25069;SDS011;13064;48.162;11.536;2022-12-29T15:23:18;9.88;;;2.60;;
25069;SDS011;13064;48.162;11.536;2022-12-29T15:25:55;4.53;;;2.67;;
25069;SDS011;13064;48.162;11.536;2022-12-29T15:28:23;4.32;;;1.60;;
25069;SDS011;13064;48.162;11.536;2022-12-29T15:30:53;3.67;;;1.85;;
25069;SDS011;13064;48.162;11.536;2022-12-29T15:33:21;5.68;;;1.77;;
25069;SDS011;13064;48.162;11.536;2022-12-29T15:35:50;3.20;;;1.75;;
25069;SDS011;13064;48.162;11.536;2022-12-29T15:38:23;5.07;;;2.30;;
25069;SDS011;13064;48.162;11.536;2022-12-29T15:41:00;2.80;;;2.13;;
25069;SDS011;13064;48.162;11.536;2022-12-29T15:43:36;8.27;;;2.40;;
25069;SDS011;13064;48.162;11.536;2022-12-29T15:46:13;4.10;;;1.80;;
25069;SDS011;13064;48.162;11.536;2022-12-29T15:48:41;2.38;;;1.80;;
25069;SDS011;13064;48.162;11.536;2022-12-29T15:51:43;3.00;;;1.80;;
25069;SDS011;13064;48.162;11.536;2022-12-29T15:54:03;4.57;;;1.58;;
25069;SDS011;13064;48.162;11.536;2022-12-29T15:56:31;5.78;;;1.77;;
25069;SDS011;13064;48.162;11.536;2022-12-29T15:58:59;4.43;;;1.92;;
25069;SDS011;13064;48.162;11.536;2022-12-29T16:03:56;3.03;;;1.83;;
25069;SDS011;13064;48.162;11.536;2022-12-29T16:06:26;2.25;;;1.45;;
25069;SDS011;13064;48.162;11.536;2022-12-29T16:08:55;3.13;;;1.67;;
25069;SDS011;13064;48.162;11.536;2022-12-29T16:11:46;2.67;;;1.98;;
25069;SDS011;13064;48.162;11.536;2022-12-29T16:14:16;4.82;;;2.50;;
25069;SDS011;13064;48.162;11.536;2022-12-29T16:16:44;2.75;;;2.10;;
25069;SDS011;13064;48.162;11.536;2022-12-29T16:19:13;4.22;;;2.17;;
25069;SDS011;13064;48.162;11.536;2022-12-29T16:21:41;3.85;;;2.28;;
25069;SDS011;13064;48.162;11.536;2022-12-29T16:24:12;5.85;;;2.20;;
25069;SDS011;13064;48.162;11.536;2022-12-29T16:26:56;7.75;;;2.25;;
25069;SDS011;13064;48.162;11.536;2022-12-29T16:29:24;4.13;;;2.00;;
25069;SDS011;13064;48.162;11.536;2022-12-29T16:31:56;3.72;;;1.88;;
25069;SDS011;13064;48.162;11.536;2022-12-29T16:34:33;3.25;;;1.70;;
25069;SDS011;13064;48.162;11.536;2022-12-29T16:37:02;2.63;;;1.80;;
25069;SDS011;13064;48.162;11.536;2022-12-29T16:39:30;2.63;;;1.60;;
25069;SDS011;13064;48.162;11.536;2022-12-29T16:41:58;3.33;;;1.55;;
25069;SDS011;13064;48.162;11.536;2022-12-29T16:44:27;3.17;;;1.65;;
25069;SDS011;13064;48.162;11.536;2022-12-29T16:46:57;2.97;;;1.67;;
25069;SDS011;13064;48.162;11.536;2022-12-29T16:49:25;2.47;;;1.60;;
25069;SDS011;13064;48.162;11.536;2022-12-29T16:51:53;3.80;;;1.70;;
25069;SDS011;13064;48.162;11.536;2022-12-29T16:54:22;4.45;;;2.15;;
25069;SDS011;13064;48.162;11.536;2022-12-29T16:56:51;5.25;;;2.03;;
25069;SDS011;13064;48.162;11.536;2022-12-29T16:59:23;2.35;;;1.70;;
25069;SDS011;13064;48.162;11.536;2022-12-29T17:01:52;3.92;;;2.10;;
25069;SDS011;13064;48.162;11.536;2022-12-29T17:04:20;4.90;;;2.40;;
25069;SDS011;13064;48.162;11.536;2022-12-29T17:06:48;4.45;;;2.95;;
25069;SDS011;13064;48.162;11.536;2022-12-29T17:09:19;6.85;;;2.67;;
25069;SDS011;13064;48.162;11.536;2022-12-29T17:11:48;4.85;;;2.40;;